createdAt,value
2019-04-01T00:00:46.551Z,8.75
2019-04-01T00:05:44.398Z,8.45
2019-04-01T00:08:12.888Z,8.38
2019-04-01T00:10:41.249Z,9.50
2019-04-01T00:13:10.019Z,9.00
2019-04-01T00:15:41.150Z,10.05
2019-04-01T00:18:10.101Z,8.73
2019-04-01T00:20:55.177Z,8.70
2019-04-01T00:23:25.270Z,9.23
2019-04-01T00:25:53.718Z,10.18
2019-04-01T00:28:22.175Z,10.10
2019-04-01T00:30:50.619Z,10.80
2019-04-01T00:33:19.213Z,9.88
2019-04-01T00:35:47.633Z,9.75
2019-04-01T00:41:06.897Z,9.53
2019-04-01T00:43:52.710Z,9.48
2019-04-01T00:46:21.308Z,9.58
2019-04-01T00:48:56.947Z,10.13
2019-04-01T00:51:25.361Z,9.90
2019-04-01T00:53:53.797Z,10.85
2019-04-01T00:56:22.270Z,12.88
2019-04-01T00:58:54.127Z,13.43
2019-04-01T01:01:22.657Z,12.47
2019-04-01T01:03:55.393Z,12.23
2019-04-01T01:09:38.344Z,12.73
2019-04-01T01:12:06.980Z,12.20
2019-04-01T01:14:38.126Z,12.35
2019-04-01T01:17:08.278Z,13.45
2019-04-01T01:19:44.975Z,14.25
2019-04-01T01:22:15.408Z,13.35
2019-04-01T01:24:45.635Z,13.45
2019-04-01T01:27:14.112Z,13.18
2019-04-01T01:29:45.383Z,15.00
2019-04-01T01:32:13.866Z,16.02
2019-04-01T01:34:43.996Z,14.90
2019-04-01T01:37:14.928Z,14.63
2019-04-01T01:39:46.623Z,15.65
2019-04-01T01:42:15.094Z,14.90
2019-04-01T01:44:43.656Z,14.10
2019-04-01T01:47:12.114Z,14.65
2019-04-01T01:49:46.565Z,14.65
2019-04-01T01:52:41.044Z,14.87
2019-04-01T01:54:52.846Z,17.07
2019-04-01T01:57:21.264Z,16.75
2019-04-01T01:59:51.386Z,18.05
2019-04-01T02:02:33.852Z,18.77
2019-04-01T02:08:07.823Z,18.65
2019-04-01T02:10:37.130Z,18.25
2019-04-01T02:13:09.653Z,19.20
2019-04-01T02:15:38.097Z,20.68
2019-04-01T02:18:09.217Z,21.35
2019-04-01T02:20:43.617Z,19.62
2019-04-01T02:23:23.599Z,18.30
2019-04-01T02:25:52.035Z,19.90
2019-04-01T02:28:33.655Z,18.50
2019-04-01T02:31:13.274Z,18.42
2019-04-01T02:33:42.247Z,17.87
2019-04-01T02:36:15.111Z,17.80
2019-04-01T02:41:13.821Z,17.55
2019-04-01T02:43:42.322Z,17.48
2019-04-01T02:46:10.850Z,18.85
2019-04-01T02:48:39.278Z,19.67
2019-04-01T02:51:07.753Z,20.68
2019-04-01T02:53:36.298Z,22.50
2019-04-01T02:56:14.872Z,20.62
2019-04-01T02:58:40.901Z,20.77
2019-04-01T03:04:04.425Z,21.27
2019-04-01T03:06:34.444Z,20.80
2019-04-01T03:09:04.743Z,22.22
2019-04-01T03:11:33.182Z,21.60
2019-04-01T03:14:01.641Z,21.42
2019-04-01T03:16:30.070Z,21.25
2019-04-01T03:18:58.524Z,21.10
2019-04-01T03:21:27.028Z,22.60
2019-04-01T03:23:55.524Z,22.17
2019-04-01T03:29:13.366Z,21.95
2019-04-01T03:31:48.641Z,21.80
2019-04-01T03:34:17.215Z,25.10
2019-04-01T03:36:45.865Z,24.60
2019-04-01T03:39:24.101Z,25.00
2019-04-01T03:41:54.749Z,24.30
2019-04-01T03:52:59.423Z,23.70
2019-04-01T03:55:29.874Z,25.65
2019-04-01T03:58:00.540Z,25.37
2019-04-01T04:00:28.972Z,24.52
2019-04-01T04:02:57.392Z,25.37
2019-04-01T04:05:25.842Z,25.00
2019-04-01T04:07:58.740Z,26.68
2019-04-01T04:10:29.010Z,25.82
2019-04-01T04:12:57.426Z,26.65
2019-04-01T04:15:27.713Z,25.75
2019-04-01T04:17:56.133Z,25.15
2019-04-01T04:20:24.572Z,25.48
2019-04-01T04:22:53.369Z,26.48
2019-04-01T04:25:22.179Z,29.40
2019-04-01T04:27:53.307Z,28.32
2019-04-01T04:30:22.723Z,27.25
2019-04-01T04:32:51.131Z,27.65
2019-04-01T04:35:19.568Z,26.15
2019-04-01T04:37:48.149Z,27.25
2019-04-01T04:40:16.674Z,26.60
2019-04-01T04:42:45.621Z,28.73
2019-04-01T04:45:14.751Z,28.57
2019-04-01T04:47:43.652Z,29.15
2019-04-01T04:50:12.144Z,27.98
2019-04-01T04:52:40.912Z,26.62
2019-04-01T04:55:09.723Z,27.77
2019-04-01T04:57:38.404Z,29.27
2019-04-01T05:00:07.445Z,27.48
2019-04-01T05:02:36.228Z,28.15
2019-04-01T05:05:06.423Z,28.05
2019-04-01T05:07:35.685Z,28.40
2019-04-01T05:10:06.840Z,27.50
2019-04-01T05:12:35.270Z,27.37
2019-04-01T05:15:04.359Z,29.32
2019-04-01T05:17:33.333Z,26.97
2019-04-01T05:20:02.089Z,27.75
2019-04-01T05:22:30.933Z,27.42
2019-04-01T05:25:00.093Z,27.27
2019-04-01T05:27:30.509Z,28.52
2019-04-01T05:30:02.531Z,27.93
2019-04-01T05:32:32.477Z,28.62
2019-04-01T05:35:03.817Z,30.10
2019-04-01T05:37:32.521Z,30.55
2019-04-01T05:40:01.486Z,38.80
2019-04-01T05:42:30.153Z,31.25
2019-04-01T05:44:58.990Z,31.27
2019-04-01T05:47:31.650Z,30.77
2019-04-01T05:50:00.136Z,30.08
2019-04-01T05:52:28.879Z,30.52
2019-04-01T05:54:58.203Z,31.00
2019-04-01T05:57:27.768Z,27.37
2019-04-01T05:59:56.349Z,29.57
2019-04-01T06:02:25.117Z,30.52
2019-04-01T06:04:53.696Z,28.98
2019-04-01T06:07:22.360Z,28.45
2019-04-01T06:09:51.263Z,30.10
2019-04-01T06:12:24.044Z,27.58
2019-04-01T06:14:51.542Z,44.73
2019-04-01T06:17:20.174Z,30.43
2019-04-01T06:19:49.001Z,30.30
2019-04-01T06:22:17.701Z,32.17
2019-04-01T06:24:46.674Z,53.52
2019-04-01T06:27:15.854Z,38.88
2019-04-01T06:29:45.206Z,35.05
2019-04-01T06:32:13.719Z,28.02
2019-04-01T06:34:52.719Z,35.20
2019-04-01T06:37:13.352Z,30.52
2019-04-01T06:39:42.402Z,30.97
2019-04-01T06:42:11.337Z,29.25
2019-04-01T06:44:40.111Z,31.35
2019-04-01T06:47:08.576Z,31.07
2019-04-01T06:49:37.179Z,32.60
2019-04-01T06:52:05.718Z,33.15
2019-04-01T06:54:34.620Z,31.12
2019-04-01T06:57:09.085Z,34.35
2019-04-01T06:59:38.121Z,33.18
2019-04-01T07:02:06.737Z,35.98
2019-04-01T07:04:35.263Z,34.90
2019-04-01T07:07:17.906Z,36.05
2019-04-01T07:09:34.390Z,36.70
2019-04-01T07:12:02.908Z,35.85
2019-04-01T07:14:31.326Z,34.80
2019-04-01T07:17:00.093Z,32.75
2019-04-01T07:19:28.645Z,35.68
2019-04-01T07:21:57.763Z,36.98
2019-04-01T07:24:26.408Z,33.83
2019-04-01T07:26:55.208Z,35.50
2019-04-01T07:29:24.924Z,35.15
2019-04-01T07:31:53.593Z,34.67
2019-04-01T07:34:22.080Z,33.30
2019-04-01T07:36:50.509Z,34.27
2019-04-01T07:39:19.120Z,33.95
2019-04-01T07:41:47.843Z,34.45
2019-04-01T07:44:16.337Z,34.63
2019-04-01T07:46:45.860Z,33.40
2019-04-01T07:49:14.447Z,33.20
2019-04-01T07:51:43.674Z,35.15
2019-04-01T07:54:12.152Z,33.53
2019-04-01T07:56:41.015Z,34.27
2019-04-01T07:59:09.900Z,33.30
2019-04-01T08:01:38.790Z,34.67
2019-04-01T08:04:07.225Z,32.63
2019-04-01T08:06:35.732Z,32.55
2019-04-01T08:09:09.350Z,33.45
2019-04-01T08:11:37.795Z,31.42
2019-04-01T08:14:06.293Z,31.87
2019-04-01T08:16:36.364Z,32.93
2019-04-01T08:19:05.352Z,35.30
2019-04-01T08:21:33.948Z,33.63
2019-04-01T08:24:02.464Z,34.20
2019-04-01T08:26:30.889Z,33.92
2019-04-01T08:29:00.921Z,33.08
2019-04-01T08:31:29.410Z,34.60
2019-04-01T08:33:58.334Z,32.88
2019-04-01T08:36:30.365Z,31.80
2019-04-01T08:39:01.553Z,31.52
2019-04-01T08:41:32.861Z,33.02
2019-04-01T08:44:03.199Z,32.93
2019-04-01T08:46:31.468Z,35.50
2019-04-01T08:49:01.626Z,34.05
2019-04-01T08:51:30.065Z,32.53
2019-04-01T08:54:00.777Z,32.85
2019-04-01T08:56:29.447Z,32.78
2019-04-01T08:58:58.365Z,32.93
2019-04-01T09:01:35.247Z,32.00
2019-04-01T09:03:58.155Z,31.77
2019-04-01T09:06:26.627Z,33.10
2019-04-01T09:08:55.837Z,31.65
2019-04-01T09:11:24.249Z,30.95
2019-04-01T09:13:53.596Z,33.48
2019-04-01T09:16:22.053Z,32.25
2019-04-01T09:18:50.635Z,30.65
2019-04-01T09:21:20.601Z,31.30
2019-04-01T09:23:52.019Z,32.08
2019-04-01T09:26:19.497Z,32.23
2019-04-01T09:28:47.943Z,33.45
2019-04-01T09:31:16.363Z,32.08
2019-04-01T09:33:49.882Z,31.17
2019-04-01T09:36:18.942Z,31.02
2019-04-01T09:38:47.504Z,31.87
2019-04-01T09:41:17.488Z,31.85
2019-04-01T09:43:46.408Z,31.23
2019-04-01T09:46:14.896Z,32.30
2019-04-01T09:48:46.115Z,31.23
2019-04-01T09:51:14.552Z,31.48
2019-04-01T09:53:42.968Z,31.20
2019-04-01T09:56:11.811Z,32.30
2019-04-01T09:58:40.315Z,32.03
2019-04-01T10:01:08.770Z,32.58
2019-04-01T10:03:37.195Z,30.97
2019-04-01T10:06:05.687Z,30.77
2019-04-01T10:08:42.148Z,31.85
2019-04-01T10:11:04.354Z,31.68
2019-04-01T10:13:33.021Z,31.57
2019-04-01T10:16:01.465Z,32.10
2019-04-01T10:18:29.873Z,30.90
2019-04-01T10:20:58.330Z,32.05
2019-04-01T10:23:26.745Z,31.27
2019-04-01T10:25:55.649Z,31.02
2019-04-01T10:28:24.439Z,31.85
2019-04-01T10:30:53.045Z,31.17
2019-04-01T10:33:21.690Z,30.90
2019-04-01T10:35:50.227Z,30.72
2019-04-01T10:38:18.681Z,29.35
2019-04-01T10:40:47.599Z,31.33
2019-04-01T10:43:16.383Z,29.15
2019-04-01T10:45:44.949Z,30.40
2019-04-01T10:48:13.422Z,29.72
2019-04-01T10:50:41.904Z,28.67
2019-04-01T10:53:10.472Z,29.57
2019-04-01T10:55:39.051Z,29.30
2019-04-01T10:58:07.630Z,30.62
2019-04-01T11:00:36.360Z,29.65
2019-04-01T11:03:06.186Z,28.90
2019-04-01T11:05:34.965Z,29.07
2019-04-01T11:08:03.647Z,28.47
2019-04-01T11:10:32.125Z,29.12
2019-04-01T11:13:00.566Z,27.32
2019-04-01T11:15:28.986Z,29.57
2019-04-01T11:17:57.436Z,29.65
2019-04-01T11:20:25.865Z,27.98
2019-04-01T11:22:54.332Z,29.52
2019-04-01T11:25:22.931Z,28.45
2019-04-01T11:27:51.499Z,28.57
2019-04-01T11:30:20.453Z,29.15
2019-04-01T11:32:48.994Z,27.65
2019-04-01T11:35:17.505Z,28.05
2019-04-01T11:37:48.916Z,29.42
2019-04-01T11:40:17.812Z,29.67
2019-04-01T11:42:46.257Z,29.10
2019-04-01T11:45:14.806Z,28.75
2019-04-01T11:47:43.249Z,28.07
2019-04-01T11:50:11.814Z,28.23
2019-04-01T11:52:40.380Z,27.05
2019-04-01T11:55:09.765Z,27.52
2019-04-01T11:57:38.494Z,28.05
2019-04-01T12:00:13.514Z,27.87
2019-04-01T12:02:42.396Z,27.60
2019-04-01T12:05:11.167Z,27.55
2019-04-01T12:07:39.970Z,24.60
2019-04-01T12:10:09.367Z,25.43
2019-04-01T12:12:38.515Z,24.35
2019-04-01T12:15:11.551Z,24.57
2019-04-01T12:17:41.420Z,23.85
2019-04-01T12:20:09.642Z,25.02
2019-04-01T12:22:38.366Z,25.65
2019-04-01T12:25:08.543Z,24.27
2019-04-01T12:27:37.726Z,24.90
2019-04-01T12:30:06.603Z,25.55
2019-04-01T12:32:35.725Z,24.23
2019-04-01T12:35:06.010Z,25.72
2019-04-01T12:37:35.135Z,25.17
2019-04-01T12:40:05.261Z,24.35
2019-04-01T12:42:33.757Z,24.92
2019-04-01T12:45:02.289Z,24.12
2019-04-01T12:47:32.296Z,23.45
2019-04-01T12:50:00.749Z,23.30
2019-04-01T12:52:29.742Z,24.92
2019-04-01T12:55:00.918Z,23.40
2019-04-01T12:57:28.707Z,23.95
2019-04-01T12:59:57.696Z,24.43
2019-04-01T13:02:26.114Z,23.50
2019-04-01T13:04:54.533Z,23.27
2019-04-01T13:07:23.401Z,24.02
2019-04-01T13:09:52.040Z,23.40
2019-04-01T13:12:20.845Z,23.75
2019-04-01T13:14:49.282Z,24.23
2019-04-01T13:17:18.078Z,23.12
2019-04-01T13:19:46.600Z,23.07
2019-04-01T13:22:15.414Z,24.63
2019-04-01T13:24:44.233Z,23.32
2019-04-01T13:27:12.671Z,22.22
2019-04-01T13:29:41.582Z,23.25
2019-04-01T13:32:10.040Z,24.20
2019-04-01T13:34:38.472Z,23.12
2019-04-01T13:37:07.152Z,30.60
2019-04-01T13:39:36.044Z,23.70
2019-04-01T13:42:04.530Z,23.77
2019-04-01T13:44:37.123Z,24.18
2019-04-01T13:47:04.858Z,25.12
2019-04-01T13:49:34.524Z,24.75
2019-04-01T13:52:03.800Z,22.65
2019-04-01T13:54:32.698Z,22.30
2019-04-01T13:57:01.432Z,21.93
2019-04-01T13:59:29.990Z,23.47
2019-04-01T14:01:58.570Z,24.05
2019-04-01T14:04:27.483Z,23.00
2019-04-01T14:06:56.776Z,24.47
2019-04-01T14:09:25.617Z,23.22
2019-04-01T14:11:55.860Z,23.73
2019-04-01T14:14:24.647Z,23.40
2019-04-01T14:16:53.118Z,25.37
2019-04-01T14:19:21.556Z,24.27
2019-04-01T14:21:50.058Z,22.58
2019-04-01T14:24:18.566Z,24.12
2019-04-01T14:26:47.211Z,23.00
2019-04-01T14:29:16.730Z,23.27
2019-04-01T14:31:45.414Z,22.60
2019-04-01T14:34:22.918Z,21.65
2019-04-01T14:36:45.590Z,21.97
2019-04-01T14:39:14.072Z,22.73
2019-04-01T14:41:42.880Z,24.10
2019-04-01T14:44:11.396Z,21.45
2019-04-01T14:46:40.010Z,22.55
2019-04-01T14:49:08.822Z,22.40
2019-04-01T14:51:37.664Z,21.62
2019-04-01T14:54:08.149Z,22.62
2019-04-01T14:56:36.849Z,21.70
2019-04-01T14:59:05.739Z,22.40
2019-04-01T15:01:34.573Z,21.87
2019-04-01T15:04:03.369Z,21.45
2019-04-01T15:06:32.006Z,21.35
2019-04-01T15:09:00.727Z,22.02
2019-04-01T15:11:29.534Z,20.25
2019-04-01T15:14:00.086Z,20.65
2019-04-01T15:16:28.782Z,20.55
2019-04-01T15:18:58.823Z,20.90
2019-04-01T15:21:27.316Z,21.17
2019-04-01T15:23:57.687Z,19.40
2019-04-01T15:26:26.429Z,19.37
2019-04-01T15:28:55.374Z,18.20
2019-04-01T15:31:25.235Z,18.62
2019-04-01T15:33:53.787Z,19.12
2019-04-01T15:36:22.318Z,19.37
2019-04-01T15:38:51.113Z,19.37
2019-04-01T15:41:19.936Z,22.02
2019-04-01T15:43:48.452Z,20.48
2019-04-01T15:46:17.292Z,19.07
2019-04-01T15:48:45.767Z,18.67
2019-04-01T15:51:14.177Z,20.43
2019-04-01T15:53:42.653Z,19.48
2019-04-01T15:56:11.184Z,19.90
2019-04-01T15:58:39.629Z,19.65
2019-04-01T16:01:08.145Z,19.12
2019-04-01T16:03:36.589Z,18.37
2019-04-01T16:06:07.583Z,18.40
2019-04-01T16:08:35.250Z,18.20
2019-04-01T16:11:03.848Z,19.57
2019-04-01T16:13:32.297Z,18.80
2019-04-01T16:16:00.720Z,19.12
2019-04-01T16:18:30.186Z,17.65
2019-04-01T16:20:59.551Z,17.37
2019-04-01T16:23:28.064Z,17.98
2019-04-01T16:25:56.981Z,17.80
2019-04-01T16:28:25.753Z,17.55
2019-04-01T16:30:54.269Z,16.73
2019-04-01T16:33:22.724Z,18.90
2019-04-01T16:35:51.278Z,19.00
2019-04-01T16:38:19.763Z,17.37
2019-04-01T16:40:48.242Z,17.60
2019-04-01T16:43:17.263Z,17.95
2019-04-01T16:45:46.049Z,17.48
2019-04-01T16:48:15.006Z,17.30
2019-04-01T16:50:43.944Z,16.95
2019-04-01T16:53:12.444Z,17.27
2019-04-01T16:55:40.884Z,17.95
2019-04-01T16:58:09.316Z,18.48
2019-04-01T17:00:38.050Z,18.60
2019-04-01T17:03:06.607Z,17.85
2019-04-01T17:05:35.275Z,18.50
2019-04-01T17:08:04.038Z,18.73
2019-04-01T17:10:33.176Z,17.27
2019-04-01T17:13:02.100Z,17.55
2019-04-01T17:15:30.540Z,16.82
2019-04-01T17:17:59.047Z,16.55
2019-04-01T17:20:27.829Z,21.73
2019-04-01T17:22:56.416Z,26.27
2019-04-01T17:25:26.135Z,21.68
2019-04-01T17:27:55.221Z,18.70
2019-04-01T17:30:24.145Z,17.75
2019-04-01T17:32:52.904Z,16.95
2019-04-01T17:35:22.657Z,17.25
2019-04-01T17:37:51.146Z,16.40
2019-04-01T17:40:21.336Z,16.30
2019-04-01T17:42:50.202Z,16.05
2019-04-01T17:45:35.679Z,16.77
2019-04-01T17:48:06.216Z,15.70
2019-04-01T17:50:34.824Z,18.12
2019-04-01T17:53:05.339Z,16.48
2019-04-01T17:55:33.825Z,16.02
2019-04-01T17:58:02.373Z,17.37
2019-04-01T18:00:32.576Z,17.87
2019-04-01T18:03:01.192Z,18.02
2019-04-01T18:05:29.628Z,16.90
2019-04-01T18:07:58.460Z,18.62
2019-04-01T18:10:28.044Z,19.70
2019-04-01T18:12:56.812Z,20.20
2019-04-01T18:15:26.788Z,19.82
2019-04-01T18:17:55.236Z,17.92
2019-04-01T18:20:23.967Z,17.40
2019-04-01T18:22:52.551Z,15.65
2019-04-01T18:25:21.203Z,16.45
2019-04-01T18:27:50.024Z,15.63
2019-04-01T18:30:19.187Z,15.15
2019-04-01T18:32:50.990Z,15.10
2019-04-01T18:35:19.420Z,15.08
2019-04-01T18:37:48.353Z,15.20
2019-04-01T18:40:31.469Z,14.45
2019-04-01T18:42:47.903Z,14.80
2019-04-01T18:45:16.676Z,14.85
2019-04-01T18:47:45.113Z,15.03
2019-04-01T18:50:14.403Z,14.38
2019-04-01T18:52:43.336Z,13.32
2019-04-01T18:55:12.091Z,14.68
2019-04-01T18:57:40.776Z,14.35
2019-04-01T19:00:10.790Z,16.35
2019-04-01T19:02:39.289Z,14.53
2019-04-01T19:05:07.896Z,15.25
2019-04-01T19:07:36.758Z,15.15
2019-04-01T19:10:07.409Z,17.20
2019-04-01T19:12:36.055Z,16.07
2019-04-01T19:15:07.176Z,17.07
2019-04-01T19:17:35.686Z,18.48
2019-04-01T19:20:06.869Z,17.15
2019-04-01T19:22:38.390Z,16.02
2019-04-01T19:25:08.005Z,13.95
2019-04-01T19:27:36.429Z,14.75
2019-04-01T19:30:09.306Z,15.30
2019-04-01T19:35:09.405Z,17.25
2019-04-01T19:37:38.144Z,16.12
2019-04-01T19:40:07.756Z,16.35
2019-04-01T19:42:39.319Z,16.70
2019-04-01T19:45:06.976Z,16.37
2019-04-01T19:47:35.532Z,19.57
2019-04-01T19:50:07.366Z,17.95
2019-04-01T19:52:35.858Z,17.65
2019-04-01T19:55:05.984Z,16.70
2019-04-01T19:57:34.837Z,18.07
2019-04-01T20:00:04.620Z,18.65
2019-04-01T20:02:34.229Z,18.07
2019-04-01T20:05:06.956Z,17.70
2019-04-01T20:07:35.684Z,17.87
2019-04-01T20:10:05.720Z,19.07
2019-04-01T20:12:34.174Z,18.12
2019-04-01T20:15:02.760Z,18.27
2019-04-01T20:17:31.203Z,17.50
2019-04-01T20:19:59.768Z,17.65
2019-04-01T20:22:28.227Z,16.45
2019-04-01T20:24:57.010Z,16.80
2019-04-01T20:27:25.564Z,17.50
2019-04-01T20:29:54.303Z,17.17
2019-04-01T20:32:22.976Z,16.77
2019-04-01T20:34:57.291Z,17.25
2019-04-01T20:37:22.331Z,18.35
2019-04-01T20:39:50.826Z,19.27
2019-04-01T20:42:19.370Z,19.52
2019-04-01T20:44:47.853Z,17.80
2019-04-01T20:47:16.545Z,16.80
2019-04-01T20:49:45.389Z,16.37
2019-04-01T20:52:14.072Z,19.70
2019-04-01T20:54:42.531Z,20.82
2019-04-01T20:57:10.965Z,19.73
2019-04-01T20:59:40.141Z,21.35
2019-04-01T21:02:09.987Z,20.10
2019-04-01T21:04:38.768Z,20.40
2019-04-01T21:07:09.782Z,20.77
2019-04-01T21:09:37.342Z,20.97
2019-04-01T21:12:05.771Z,21.95
2019-04-01T21:14:36.011Z,20.02
2019-04-01T21:17:04.608Z,19.50
2019-04-01T21:19:33.041Z,19.27
2019-04-01T21:22:01.474Z,21.00
2019-04-01T21:24:29.952Z,21.23
2019-04-01T21:27:00.046Z,21.10
2019-04-01T21:29:31.438Z,20.60
2019-04-01T21:32:00.007Z,17.75
2019-04-01T21:34:28.458Z,17.80
2019-04-01T21:36:57.527Z,19.00
2019-04-01T21:39:30.119Z,19.60
2019-04-01T21:41:59.061Z,20.10
2019-04-01T21:44:29.032Z,19.95
2019-04-01T21:46:57.562Z,21.37
2019-04-01T21:49:26.183Z,20.90
2019-04-01T21:51:54.592Z,20.23
2019-04-01T21:54:23.034Z,18.60
2019-04-01T21:56:52.104Z,19.05
2019-04-01T21:59:22.793Z,17.65
2019-04-01T22:01:51.383Z,17.87
2019-04-01T22:04:19.976Z,18.92
2019-04-01T22:06:48.681Z,18.25
2019-04-01T22:09:17.679Z,17.92
2019-04-01T22:11:46.135Z,18.50
2019-04-01T22:14:14.588Z,18.67
2019-04-01T22:16:43.012Z,18.67
2019-04-01T22:19:14.229Z,17.92
2019-04-01T22:21:43.185Z,18.65
2019-04-01T22:24:11.654Z,19.57
2019-04-01T22:26:41.450Z,19.17
2019-04-01T22:29:10.397Z,17.85
2019-04-01T22:31:38.877Z,18.23
2019-04-01T22:34:08.271Z,17.70
2019-04-01T22:36:37.693Z,18.12
2019-04-01T22:39:06.953Z,17.23
2019-04-01T22:41:35.785Z,17.85
2019-04-01T22:44:04.610Z,17.10
2019-04-01T22:46:34.623Z,17.40
2019-04-01T22:49:03.360Z,17.45
2019-04-01T22:51:31.781Z,17.30
2019-04-01T22:54:00.203Z,17.50
2019-04-01T22:56:28.853Z,18.42
2019-04-01T22:58:57.719Z,17.45
2019-04-01T23:01:26.161Z,17.77
2019-04-01T23:03:54.864Z,18.60
2019-04-01T23:06:23.344Z,18.15
2019-04-01T23:08:52.373Z,18.12
2019-04-01T23:11:20.846Z,17.82
2019-04-01T23:13:49.497Z,19.12
2019-04-01T23:16:20.306Z,17.73
2019-04-01T23:18:48.955Z,21.12
2019-04-01T23:21:17.788Z,18.62
2019-04-01T23:23:46.391Z,18.75
2019-04-01T23:26:14.833Z,19.07
2019-04-01T23:28:43.582Z,19.98
2019-04-01T23:31:12.048Z,19.12
2019-04-01T23:33:40.796Z,19.32
2019-04-01T23:36:09.196Z,19.98
2019-04-01T23:38:38.179Z,20.48
2019-04-01T23:41:08.344Z,20.08
2019-04-01T23:43:36.953Z,21.17
2019-04-01T23:46:05.356Z,19.55
2019-04-01T23:48:33.790Z,20.50
2019-04-01T23:51:02.187Z,20.43
2019-04-01T23:53:31.364Z,19.50
2019-04-01T23:56:00.225Z,19.12
2019-04-01T23:58:28.671Z,20.60
